sensor_id;sensor_type;location;lat;lon;timestamp;temperature;humidity
7331;DHT22;3706;49.198;7.064;2023-08-12T00:02:13;19.50;99.90
7331;DHT22;3706;49.198;7.064;2023-08-12T00:04:39;19.50;99.90
7331;DHT22;3706;49.198;7.064;2023-08-12T00:07:06;19.60;99.90
7331;DHT22;3706;49.198;7.064;2023-08-12T00:09:33;19.60;99.90
7331;DHT22;3706;49.198;7.064;2023-08-12T00:12:00;19.70;99.90
7331;DHT22;3706;49.198;7.064;2023-08-12T00:14:27;19.70;99.90
7331;DHT22;3706;49.198;7.064;2023-08-12T00:16:55;19.70;99.90
7331;DHT22;3706;49.198;7.064;2023-08-12T00:19:22;19.70;99.90
7331;DHT22;3706;49.198;7.064;2023-08-12T00:21:49;19.60;99.90
7331;DHT22;3706;49.198;7.064;2023-08-12T00:24:18;19.70;99.90
7331;DHT22;3706;49.198;7.064;2023-08-12T00:26:45;19.60;99.90
7331;DHT22;3706;49.198;7.064;2023-08-12T00:29:12;19.70;99.90
7331;DHT22;3706;49.198;7.064;2023-08-12T00:31:39;19.60;99.90
7331;DHT22;3706;49.198;7.064;2023-08-12T00:34:07;19.60;99.90
7331;DHT22;3706;49.198;7.064;2023-08-12T00:36:34;19.50;99.90
7331;DHT22;3706;49.198;7.064;2023-08-12T00:39:00;19.50;99.90
7331;DHT22;3706;49.198;7.064;2023-08-12T00:41:29;19.60;99.90
7331;DHT22;3706;49.198;7.064;2023-08-12T00:43:56;19.60;99.90
7331;DHT22;3706;49.198;7.064;2023-08-12T00:46:23;19.70;99.90
7331;DHT22;3706;49.198;7.064;2023-08-12T00:48:51;19.70;99.90
7331;DHT22;3706;49.198;7.064;2023-08-12T00:51:20;19.70;99.90
7331;DHT22;3706;49.198;7.064;2023-08-12T00:53:47;19.80;99.90
7331;DHT22;3706;49.198;7.064;2023-08-12T00:56:14;19.80;99.90
7331;DHT22;3706;49.198;7.064;2023-08-12T00:58:43;19.80;99.90
7331;DHT22;3706;49.198;7.064;2023-08-12T01:01:10;19.90;99.90
7331;DHT22;3706;49.198;7.064;2023-08-12T01:03:37;19.90;99.90
7331;DHT22;3706;49.198;7.064;2023-08-12T01:06:04;19.90;99.90
7331;DHT22;3706;49.198;7.064;2023-08-12T01:08:32;20.00;99.90
7331;DHT22;3706;49.198;7.064;2023-08-12T01:11:06;20.00;99.90
7331;DHT22;3706;49.198;7.064;2023-08-12T01:13:43;20.00;99.90
7331;DHT22;3706;49.198;7.064;2023-08-12T01:16:12;19.90;99.90
7331;DHT22;3706;49.198;7.064;2023-08-12T01:18:40;20.00;99.90
7331;DHT22;3706;49.198;7.064;2023-08-12T01:21:10;20.00;99.90
7331;DHT22;3706;49.198;7.064;2023-08-12T01:23:39;20.00;99.90
7331;DHT22;3706;49.198;7.064;2023-08-12T01:26:06;20.00;99.90
7331;DHT22;3706;49.198;7.064;2023-08-12T01:28:33;19.90;99.90
7331;DHT22;3706;49.198;7.064;2023-08-12T01:31:06;19.90;99.90
7331;DHT22;3706;49.198;7.064;2023-08-12T01:33:41;19.90;99.90
7331;DHT22;3706;49.198;7.064;2023-08-12T01:36:11;19.90;99.90
7331;DHT22;3706;49.198;7.064;2023-08-12T01:38:42;19.90;99.90
7331;DHT22;3706;49.198;7.064;2023-08-12T01:41:10;19.90;99.90
7331;DHT22;3706;49.198;7.064;2023-08-12T01:43:38;19.90;99.90
7331;DHT22;3706;49.198;7.064;2023-08-12T01:46:05;19.90;99.90
7331;DHT22;3706;49.198;7.064;2023-08-12T01:48:32;19.90;99.90
7331;DHT22;3706;49.198;7.064;2023-08-12T01:50:59;19.90;99.90
7331;DHT22;3706;49.198;7.064;2023-08-12T01:53:26;19.90;99.90
7331;DHT22;3706;49.198;7.064;2023-08-12T01:55:54;19.90;99.90
7331;DHT22;3706;49.198;7.064;2023-08-12T01:58:21;19.90;99.90
7331;DHT22;3706;49.198;7.064;2023-08-12T02:00:48;19.80;99.90
7331;DHT22;3706;49.198;7.064;2023-08-12T02:03:15;19.80;99.90
7331;DHT22;3706;49.198;7.064;2023-08-12T02:05:42;19.70;99.90
7331;DHT22;3706;49.198;7.064;2023-08-12T02:08:09;19.70;99.90
7331;DHT22;3706;49.198;7.064;2023-08-12T02:10:36;19.70;99.90
7331;DHT22;3706;49.198;7.064;2023-08-12T02:13:04;19.70;99.90
7331;DHT22;3706;49.198;7.064;2023-08-12T02:15:31;19.60;99.90
7331;DHT22;3706;49.198;7.064;2023-08-12T02:17:58;19.60;99.90
7331;DHT22;3706;49.198;7.064;2023-08-12T02:20:25;19.50;99.90
7331;DHT22;3706;49.198;7.064;2023-08-12T02:22:52;19.50;99.90
7331;DHT22;3706;49.198;7.064;2023-08-12T02:25:19;19.50;99.90
7331;DHT22;3706;49.198;7.064;2023-08-12T02:27:46;19.50;99.90
7331;DHT22;3706;49.198;7.064;2023-08-12T02:30:14;19.50;99.90
7331;DHT22;3706;49.198;7.064;2023-08-12T02:32:41;19.50;99.90
7331;DHT22;3706;49.198;7.064;2023-08-12T02:35:09;19.50;99.90
7331;DHT22;3706;49.198;7.064;2023-08-12T02:37:36;19.50;99.90
7331;DHT22;3706;49.198;7.064;2023-08-12T02:40:04;19.50;99.90
7331;DHT22;3706;49.198;7.064;2023-08-12T02:42:31;19.50;99.90
7331;DHT22;3706;49.198;7.064;2023-08-12T02:44:58;19.50;99.90
7331;DHT22;3706;49.198;7.064;2023-08-12T02:47:27;19.50;99.90
7331;DHT22;3706;49.198;7.064;2023-08-12T02:49:54;19.40;99.90
7331;DHT22;3706;49.198;7.064;2023-08-12T02:52:21;19.40;99.90
7331;DHT22;3706;49.198;7.064;2023-08-12T02:54:48;19.30;99.90
7331;DHT22;3706;49.198;7.064;2023-08-12T02:57:15;19.30;99.90
7331;DHT22;3706;49.198;7.064;2023-08-12T02:59:42;19.30;99.90
7331;DHT22;3706;49.198;7.064;2023-08-12T03:02:08;19.20;99.90
7331;DHT22;3706;49.198;7.064;2023-08-12T03:04:37;19.20;99.90
7331;DHT22;3706;49.198;7.064;2023-08-12T03:07:04;19.20;99.90
7331;DHT22;3706;49.198;7.064;2023-08-12T03:09:31;19.10;99.90
7331;DHT22;3706;49.198;7.064;2023-08-12T03:11:58;19.00;99.90
7331;DHT22;3706;49.198;7.064;2023-08-12T03:14:28;18.90;99.90
7331;DHT22;3706;49.198;7.064;2023-08-12T03:16:56;18.90;99.90
7331;DHT22;3706;49.198;7.064;2023-08-12T03:19:23;18.80;99.90
7331;DHT22;3706;49.198;7.064;2023-08-12T03:21:51;18.80;99.90
7331;DHT22;3706;49.198;7.064;2023-08-12T03:24:18;18.80;99.90
7331;DHT22;3706;49.198;7.064;2023-08-12T03:26:45;18.80;99.90
7331;DHT22;3706;49.198;7.064;2023-08-12T03:29:12;18.70;99.90
7331;DHT22;3706;49.198;7.064;2023-08-12T03:31:38;18.70;99.90
7331;DHT22;3706;49.198;7.064;2023-08-12T03:34:05;18.60;99.90
7331;DHT22;3706;49.198;7.064;2023-08-12T03:36:32;18.60;99.90
7331;DHT22;3706;49.198;7.064;2023-08-12T03:39:00;18.50;99.90
7331;DHT22;3706;49.198;7.064;2023-08-12T03:41:27;18.50;99.90
7331;DHT22;3706;49.198;7.064;2023-08-12T03:43:54;18.50;99.90
7331;DHT22;3706;49.198;7.064;2023-08-12T03:46:21;18.40;99.90
7331;DHT22;3706;49.198;7.064;2023-08-12T03:48:48;18.40;99.90
7331;DHT22;3706;49.198;7.064;2023-08-12T03:51:15;18.40;99.90
7331;DHT22;3706;49.198;7.064;2023-08-12T03:53:42;18.40;99.90
7331;DHT22;3706;49.198;7.064;2023-08-12T03:56:10;18.40;99.90
7331;DHT22;3706;49.198;7.064;2023-08-12T03:58:40;18.40;99.90
7331;DHT22;3706;49.198;7.064;2023-08-12T04:01:07;18.40;99.90
7331;DHT22;3706;49.198;7.064;2023-08-12T04:03:34;18.30;99.90
7331;DHT22;3706;49.198;7.064;2023-08-12T04:06:01;18.30;99.90
7331;DHT22;3706;49.198;7.064;2023-08-12T04:08:28;18.30;99.90
7331;DHT22;3706;49.198;7.064;2023-08-12T04:10:57;18.40;99.90
7331;DHT22;3706;49.198;7.064;2023-08-12T04:13:26;18.40;99.90
7331;DHT22;3706;49.198;7.064;2023-08-12T04:15:53;18.50;99.90
7331;DHT22;3706;49.198;7.064;2023-08-12T04:18:20;18.50;99.90
7331;DHT22;3706;49.198;7.064;2023-08-12T04:20:48;18.60;99.90
7331;DHT22;3706;49.198;7.064;2023-08-12T04:23:15;18.60;99.90
7331;DHT22;3706;49.198;7.064;2023-08-12T04:25:43;18.70;99.90
7331;DHT22;3706;49.198;7.064;2023-08-12T04:28:10;18.70;99.90
7331;DHT22;3706;49.198;7.064;2023-08-12T04:30:41;18.70;99.90
7331;DHT22;3706;49.198;7.064;2023-08-12T04:33:08;18.60;99.90
7331;DHT22;3706;49.198;7.064;2023-08-12T04:35:35;18.60;99.90
7331;DHT22;3706;49.198;7.064;2023-08-12T04:38:03;18.70;99.90
7331;DHT22;3706;49.198;7.064;2023-08-12T04:40:30;18.60;99.90
7331;DHT22;3706;49.198;7.064;2023-08-12T04:42:57;18.50;99.90
7331;DHT22;3706;49.198;7.064;2023-08-12T04:45:24;18.60;99.90
7331;DHT22;3706;49.198;7.064;2023-08-12T04:47:53;18.60;99.90
7331;DHT22;3706;49.198;7.064;2023-08-12T04:50:20;18.70;99.90
7331;DHT22;3706;49.198;7.064;2023-08-12T04:52:47;18.70;99.90
7331;DHT22;3706;49.198;7.064;2023-08-12T04:55:13;18.70;99.90
7331;DHT22;3706;49.198;7.064;2023-08-12T04:57:40;18.80;99.90
7331;DHT22;3706;49.198;7.064;2023-08-12T05:00:08;18.70;99.90
7331;DHT22;3706;49.198;7.064;2023-08-12T05:02:35;18.70;99.90
7331;DHT22;3706;49.198;7.064;2023-08-12T05:05:04;18.70;99.90
7331;DHT22;3706;49.198;7.064;2023-08-12T05:07:31;18.70;99.90
7331;DHT22;3706;49.198;7.064;2023-08-12T05:09:59;18.70;99.90
7331;DHT22;3706;49.198;7.064;2023-08-12T05:12:26;18.60;99.90
7331;DHT22;3706;49.198;7.064;2023-08-12T05:14:53;18.70;99.90
7331;DHT22;3706;49.198;7.064;2023-08-12T05:17:20;18.90;99.90
7331;DHT22;3706;49.198;7.064;2023-08-12T05:19:47;18.90;99.90
7331;DHT22;3706;49.198;7.064;2023-08-12T05:22:16;19.10;99.90
7331;DHT22;3706;49.198;7.064;2023-08-12T05:24:42;19.30;99.90
7331;DHT22;3706;49.198;7.064;2023-08-12T05:27:09;19.40;99.90
7331;DHT22;3706;49.198;7.064;2023-08-12T05:29:36;19.60;99.90
7331;DHT22;3706;49.198;7.064;2023-08-12T05:32:03;19.80;99.90
7331;DHT22;3706;49.198;7.064;2023-08-12T05:34:30;19.80;99.90
7331;DHT22;3706;49.198;7.064;2023-08-12T05:36:57;19.90;99.90
7331;DHT22;3706;49.198;7.064;2023-08-12T05:39:26;20.00;99.90
7331;DHT22;3706;49.198;7.064;2023-08-12T05:41:52;20.00;99.90
7331;DHT22;3706;49.198;7.064;2023-08-12T05:44:19;20.10;99.90
7331;DHT22;3706;49.198;7.064;2023-08-12T05:46:46;20.20;99.90
7331;DHT22;3706;49.198;7.064;2023-08-12T05:49:13;20.30;99.90
7331;DHT22;3706;49.198;7.064;2023-08-12T05:51:40;20.50;99.90
7331;DHT22;3706;49.198;7.064;2023-08-12T05:54:07;20.60;99.90
7331;DHT22;3706;49.198;7.064;2023-08-12T05:56:35;20.60;99.90
7331;DHT22;3706;49.198;7.064;2023-08-12T05:59:02;20.60;99.90
7331;DHT22;3706;49.198;7.064;2023-08-12T06:01:29;20.70;99.90
7331;DHT22;3706;49.198;7.064;2023-08-12T06:03:56;20.60;99.90
7331;DHT22;3706;49.198;7.064;2023-08-12T06:06:23;20.60;99.90
7331;DHT22;3706;49.198;7.064;2023-08-12T06:08:50;20.60;99.90
7331;DHT22;3706;49.198;7.064;2023-08-12T06:11:17;20.60;99.90
7331;DHT22;3706;49.198;7.064;2023-08-12T06:13:45;20.70;99.90
7331;DHT22;3706;49.198;7.064;2023-08-12T06:16:12;20.70;99.90
7331;DHT22;3706;49.198;7.064;2023-08-12T06:18:39;20.70;99.90
7331;DHT22;3706;49.198;7.064;2023-08-12T06:21:05;20.70;99.90
7331;DHT22;3706;49.198;7.064;2023-08-12T06:23:32;20.90;99.90
7331;DHT22;3706;49.198;7.064;2023-08-12T06:25:59;21.00;99.90
7331;DHT22;3706;49.198;7.064;2023-08-12T06:28:26;21.30;99.90
7331;DHT22;3706;49.198;7.064;2023-08-12T06:30:54;21.50;99.90
7331;DHT22;3706;49.198;7.064;2023-08-12T06:33:21;21.80;99.90
7331;DHT22;3706;49.198;7.064;2023-08-12T06:35:50;21.90;99.90
7331;DHT22;3706;49.198;7.064;2023-08-12T06:38:17;22.00;99.90
7331;DHT22;3706;49.198;7.064;2023-08-12T06:40:44;22.10;99.90
7331;DHT22;3706;49.198;7.064;2023-08-12T06:43:12;22.10;99.90
7331;DHT22;3706;49.198;7.064;2023-08-12T06:45:38;22.20;99.90
7331;DHT22;3706;49.198;7.064;2023-08-12T06:48:07;22.10;99.90
7331;DHT22;3706;49.198;7.064;2023-08-12T06:50:34;22.00;99.90
7331;DHT22;3706;49.198;7.064;2023-08-12T06:53:01;21.90;99.90
7331;DHT22;3706;49.198;7.064;2023-08-12T06:55:28;21.90;99.90
7331;DHT22;3706;49.198;7.064;2023-08-12T06:57:54;21.90;99.90
7331;DHT22;3706;49.198;7.064;2023-08-12T07:00:21;21.90;99.90
7331;DHT22;3706;49.198;7.064;2023-08-12T07:02:48;21.90;99.90
7331;DHT22;3706;49.198;7.064;2023-08-12T07:05:17;22.00;99.90
7331;DHT22;3706;49.198;7.064;2023-08-12T07:07:44;22.20;99.90
7331;DHT22;3706;49.198;7.064;2023-08-12T07:10:11;22.50;99.90
7331;DHT22;3706;49.198;7.064;2023-08-12T07:12:37;23.50;99.90
7331;DHT22;3706;49.198;7.064;2023-08-12T07:15:05;24.80;99.90
7331;DHT22;3706;49.198;7.064;2023-08-12T07:17:32;25.70;99.90
7331;DHT22;3706;49.198;7.064;2023-08-12T07:19:59;26.20;99.90
7331;DHT22;3706;49.198;7.064;2023-08-12T07:22:27;27.10;99.90
7331;DHT22;3706;49.198;7.064;2023-08-12T07:24:54;27.80;99.90
7331;DHT22;3706;49.198;7.064;2023-08-12T07:27:21;28.00;99.90
7331;DHT22;3706;49.198;7.064;2023-08-12T07:29:48;27.90;99.90
7331;DHT22;3706;49.198;7.064;2023-08-12T07:32:15;27.70;99.90
7331;DHT22;3706;49.198;7.064;2023-08-12T07:34:42;27.50;99.90
7331;DHT22;3706;49.198;7.064;2023-08-12T07:37:09;28.10;99.90
7331;DHT22;3706;49.198;7.064;2023-08-12T07:39:37;29.10;99.90
7331;DHT22;3706;49.198;7.064;2023-08-12T07:42:03;29.50;99.90
7331;DHT22;3706;49.198;7.064;2023-08-12T07:44:30;29.50;99.90
7331;DHT22;3706;49.198;7.064;2023-08-12T07:46:57;29.30;99.90
7331;DHT22;3706;49.198;7.064;2023-08-12T07:49:24;29.00;99.90
7331;DHT22;3706;49.198;7.064;2023-08-12T07:51:51;28.70;99.90
7331;DHT22;3706;49.198;7.064;2023-08-12T07:54:18;28.50;99.90
7331;DHT22;3706;49.198;7.064;2023-08-12T07:56:46;28.30;99.90
7331;DHT22;3706;49.198;7.064;2023-08-12T07:59:13;28.10;99.90
7331;DHT22;3706;49.198;7.064;2023-08-12T08:01:40;27.90;99.90
7331;DHT22;3706;49.198;7.064;2023-08-12T08:04:07;27.80;99.90
7331;DHT22;3706;49.198;7.064;2023-08-12T08:06:33;27.70;99.90
7331;DHT22;3706;49.198;7.064;2023-08-12T08:09:00;28.20;99.90
7331;DHT22;3706;49.198;7.064;2023-08-12T08:11:29;29.00;99.90
7331;DHT22;3706;49.198;7.064;2023-08-12T08:13:58;29.80;99.90
7331;DHT22;3706;49.198;7.064;2023-08-12T08:16:25;30.30;99.90
7331;DHT22;3706;49.198;7.064;2023-08-12T08:18:52;30.40;99.90
7331;DHT22;3706;49.198;7.064;2023-08-12T08:21:19;30.00;99.90
7331;DHT22;3706;49.198;7.064;2023-08-12T08:23:46;29.70;99.90
7331;DHT22;3706;49.198;7.064;2023-08-12T08:26:13;29.20;99.90
7331;DHT22;3706;49.198;7.064;2023-08-12T08:28:41;28.60;99.90
7331;DHT22;3706;49.198;7.064;2023-08-12T08:31:09;28.10;99.90
7331;DHT22;3706;49.198;7.064;2023-08-12T08:33:36;27.50;99.90
7331;DHT22;3706;49.198;7.064;2023-08-12T08:36:03;27.10;99.90
7331;DHT22;3706;49.198;7.064;2023-08-12T08:38:32;26.70;99.90
7331;DHT22;3706;49.198;7.064;2023-08-12T08:40:59;25.90;99.90
7331;DHT22;3706;49.198;7.064;2023-08-12T08:43:27;25.40;99.90
7331;DHT22;3706;49.198;7.064;2023-08-12T08:45:54;25.20;99.90
7331;DHT22;3706;49.198;7.064;2023-08-12T08:48:23;25.10;99.90
7331;DHT22;3706;49.198;7.064;2023-08-12T08:50:50;24.90;99.90
7331;DHT22;3706;49.198;7.064;2023-08-12T08:53:18;24.80;99.90
7331;DHT22;3706;49.198;7.064;2023-08-12T08:55:46;24.80;99.90
7331;DHT22;3706;49.198;7.064;2023-08-12T08:58:14;25.00;99.90
7331;DHT22;3706;49.198;7.064;2023-08-12T09:00:41;25.00;99.90
7331;DHT22;3706;49.198;7.064;2023-08-12T09:03:09;24.90;99.90
7331;DHT22;3706;49.198;7.064;2023-08-12T09:05:39;24.80;99.90
7331;DHT22;3706;49.198;7.064;2023-08-12T09:08:08;24.70;99.90
7331;DHT22;3706;49.198;7.064;2023-08-12T09:10:38;24.60;99.90
7331;DHT22;3706;49.198;7.064;2023-08-12T09:13:07;24.60;99.90
7331;DHT22;3706;49.198;7.064;2023-08-12T09:15:35;24.40;99.90
7331;DHT22;3706;49.198;7.064;2023-08-12T09:18:04;24.30;99.90
7331;DHT22;3706;49.198;7.064;2023-08-12T09:20:32;24.00;99.90
7331;DHT22;3706;49.198;7.064;2023-08-12T09:23:00;23.70;99.90
7331;DHT22;3706;49.198;7.064;2023-08-12T09:25:28;23.50;99.90
7331;DHT22;3706;49.198;7.064;2023-08-12T09:27:58;23.50;99.90
7331;DHT22;3706;49.198;7.064;2023-08-12T09:30:28;23.60;99.90
7331;DHT22;3706;49.198;7.064;2023-08-12T09:32:59;23.80;99.90
7331;DHT22;3706;49.198;7.064;2023-08-12T09:35:33;24.00;99.90
7331;DHT22;3706;49.198;7.064;2023-08-12T09:38:02;24.50;99.90
7331;DHT22;3706;49.198;7.064;2023-08-12T09:40:30;25.50;99.90
7331;DHT22;3706;49.198;7.064;2023-08-12T09:42:57;26.50;99.90
7331;DHT22;3706;49.198;7.064;2023-08-12T09:45:25;27.00;99.90
7331;DHT22;3706;49.198;7.064;2023-08-12T09:47:52;27.00;99.90
7331;DHT22;3706;49.198;7.064;2023-08-12T09:50:21;26.90;99.90
7331;DHT22;3706;49.198;7.064;2023-08-12T09:52:50;26.80;99.90
7331;DHT22;3706;49.198;7.064;2023-08-12T09:55:20;26.70;99.90
7331;DHT22;3706;49.198;7.064;2023-08-12T09:57:49;26.40;99.90
7331;DHT22;3706;49.198;7.064;2023-08-12T10:00:18;26.10;99.90
7331;DHT22;3706;49.198;7.064;2023-08-12T10:02:46;25.70;99.90
7331;DHT22;3706;49.198;7.064;2023-08-12T10:05:19;25.40;99.90
7331;DHT22;3706;49.198;7.064;2023-08-12T10:07:48;25.30;99.90
7331;DHT22;3706;49.198;7.064;2023-08-12T10:10:15;25.50;99.90
7331;DHT22;3706;49.198;7.064;2023-08-12T10:12:43;25.80;99.90
7331;DHT22;3706;49.198;7.064;2023-08-12T10:15:11;26.20;99.90
7331;DHT22;3706;49.198;7.064;2023-08-12T10:17:38;26.70;99.90
7331;DHT22;3706;49.198;7.064;2023-08-12T10:20:08;27.00;99.90
7331;DHT22;3706;49.198;7.064;2023-08-12T10:22:36;27.40;99.90
7331;DHT22;3706;49.198;7.064;2023-08-12T10:25:04;28.20;99.90
7331;DHT22;3706;49.198;7.064;2023-08-12T10:27:34;29.30;99.90
7331;DHT22;3706;49.198;7.064;2023-08-12T10:30:04;30.10;99.90
7331;DHT22;3706;49.198;7.064;2023-08-12T10:32:33;30.20;99.90
7331;DHT22;3706;49.198;7.064;2023-08-12T10:35:00;30.20;99.90
7331;DHT22;3706;49.198;7.064;2023-08-12T10:37:31;30.20;99.90
7331;DHT22;3706;49.198;7.064;2023-08-12T10:39:59;30.30;99.90
7331;DHT22;3706;49.198;7.064;2023-08-12T10:42:41;30.50;99.90
7331;DHT22;3706;49.198;7.064;2023-08-12T10:45:11;31.00;99.90
7331;DHT22;3706;49.198;7.064;2023-08-12T10:47:39;31.60;99.90
7331;DHT22;3706;49.198;7.064;2023-08-12T10:50:16;32.40;99.90
7331;DHT22;3706;49.198;7.064;2023-08-12T10:52:44;33.70;99.90
7331;DHT22;3706;49.198;7.064;2023-08-12T10:55:18;34.40;99.90
7331;DHT22;3706;49.198;7.064;2023-08-12T10:57:46;34.80;99.90
7331;DHT22;3706;49.198;7.064;2023-08-12T11:00:16;36.10;95.80
7331;DHT22;3706;49.198;7.064;2023-08-12T11:02:48;36.80;91.70
7331;DHT22;3706;49.198;7.064;2023-08-12T11:05:16;37.20;86.90
7331;DHT22;3706;49.198;7.064;2023-08-12T11:07:45;36.60;86.40
7331;DHT22;3706;49.198;7.064;2023-08-12T11:10:14;36.30;86.80
7331;DHT22;3706;49.198;7.064;2023-08-12T11:12:47;36.60;85.90
7331;DHT22;3706;49.198;7.064;2023-08-12T11:15:15;36.90;84.00
7331;DHT22;3706;49.198;7.064;2023-08-12T11:17:42;37.20;83.10
7331;DHT22;3706;49.198;7.064;2023-08-12T11:20:10;37.20;82.90
7331;DHT22;3706;49.198;7.064;2023-08-12T11:22:39;36.80;80.30
7331;DHT22;3706;49.198;7.064;2023-08-12T11:25:09;35.70;82.80
7331;DHT22;3706;49.198;7.064;2023-08-12T11:27:40;34.50;85.40
7331;DHT22;3706;49.198;7.064;2023-08-12T11:30:08;33.70;88.20
7331;DHT22;3706;49.198;7.064;2023-08-12T11:32:38;33.10;90.00
7331;DHT22;3706;49.198;7.064;2023-08-12T11:35:06;32.90;90.90
7331;DHT22;3706;49.198;7.064;2023-08-12T11:37:35;32.90;91.10
7331;DHT22;3706;49.198;7.064;2023-08-12T11:40:04;32.90;90.70
7331;DHT22;3706;49.198;7.064;2023-08-12T11:42:31;32.60;90.30
7331;DHT22;3706;49.198;7.064;2023-08-12T11:44:58;32.30;91.10
7331;DHT22;3706;49.198;7.064;2023-08-12T11:47:25;32.30;91.20
7331;DHT22;3706;49.198;7.064;2023-08-12T11:49:54;32.20;91.40
7331;DHT22;3706;49.198;7.064;2023-08-12T11:52:21;32.40;91.60
7331;DHT22;3706;49.198;7.064;2023-08-12T11:54:48;32.30;91.20
7331;DHT22;3706;49.198;7.064;2023-08-12T11:57:16;31.90;91.90
7331;DHT22;3706;49.198;7.064;2023-08-12T11:59:43;31.20;92.30
7331;DHT22;3706;49.198;7.064;2023-08-12T12:02:10;30.60;93.10
7331;DHT22;3706;49.198;7.064;2023-08-12T12:04:37;30.30;93.90
7331;DHT22;3706;49.198;7.064;2023-08-12T12:07:18;30.30;94.60
7331;DHT22;3706;49.198;7.064;2023-08-12T12:09:46;30.90;94.70
7331;DHT22;3706;49.198;7.064;2023-08-12T12:12:13;31.50;93.60
7331;DHT22;3706;49.198;7.064;2023-08-12T12:14:40;31.50;92.50
7331;DHT22;3706;49.198;7.064;2023-08-12T12:17:07;31.10;93.20
7331;DHT22;3706;49.198;7.064;2023-08-12T12:19:36;30.70;93.60
7331;DHT22;3706;49.198;7.064;2023-08-12T12:22:03;30.50;94.60
7331;DHT22;3706;49.198;7.064;2023-08-12T12:24:43;30.40;94.50
7331;DHT22;3706;49.198;7.064;2023-08-12T12:27:11;30.30;95.50
7331;DHT22;3706;49.198;7.064;2023-08-12T12:29:38;30.20;95.80
7331;DHT22;3706;49.198;7.064;2023-08-12T12:32:05;30.10;95.60
7331;DHT22;3706;49.198;7.064;2023-08-12T12:34:32;30.30;95.30
7331;DHT22;3706;49.198;7.064;2023-08-12T12:36:59;31.10;93.90
7331;DHT22;3706;49.198;7.064;2023-08-12T12:39:26;31.80;92.90
7331;DHT22;3706;49.198;7.064;2023-08-12T12:41:55;32.10;92.30
7331;DHT22;3706;49.198;7.064;2023-08-12T12:44:23;31.90;92.20
7331;DHT22;3706;49.198;7.064;2023-08-12T12:46:50;32.00;92.60
7331;DHT22;3706;49.198;7.064;2023-08-12T12:49:17;31.90;92.10
7331;DHT22;3706;49.198;7.064;2023-08-12T12:51:44;31.60;92.20
7331;DHT22;3706;49.198;7.064;2023-08-12T12:54:11;31.10;92.90
7331;DHT22;3706;49.198;7.064;2023-08-12T12:56:38;30.50;93.70
7331;DHT22;3706;49.198;7.064;2023-08-12T12:59:06;30.00;94.30
7331;DHT22;3706;49.198;7.064;2023-08-12T13:01:33;29.50;95.00
7331;DHT22;3706;49.198;7.064;2023-08-12T13:04:00;29.40;95.50
7331;DHT22;3706;49.198;7.064;2023-08-12T13:06:27;29.60;95.40
7331;DHT22;3706;49.198;7.064;2023-08-12T13:08:54;29.80;95.30
7331;DHT22;3706;49.198;7.064;2023-08-12T13:11:21;29.90;95.10
7331;DHT22;3706;49.198;7.064;2023-08-12T13:13:47;29.60;95.40
7331;DHT22;3706;49.198;7.064;2023-08-12T13:16:16;29.50;95.70
7331;DHT22;3706;49.198;7.064;2023-08-12T13:18:43;29.50;95.90
7331;DHT22;3706;49.198;7.064;2023-08-12T13:21:10;29.50;95.60
7331;DHT22;3706;49.198;7.064;2023-08-12T13:23:36;29.50;96.20
7331;DHT22;3706;49.198;7.064;2023-08-12T13:26:03;29.80;95.60
7331;DHT22;3706;49.198;7.064;2023-08-12T13:28:30;30.00;95.00
7331;DHT22;3706;49.198;7.064;2023-08-12T13:30:57;30.00;93.40
7331;DHT22;3706;49.198;7.064;2023-08-12T13:33:25;29.80;93.30
7331;DHT22;3706;49.198;7.064;2023-08-12T13:35:54;29.40;94.30
7331;DHT22;3706;49.198;7.064;2023-08-12T13:38:20;29.10;94.70
7331;DHT22;3706;49.198;7.064;2023-08-12T13:40:49;28.60;95.20
7331;DHT22;3706;49.198;7.064;2023-08-12T13:43:16;28.20;95.80
7331;DHT22;3706;49.198;7.064;2023-08-12T13:45:42;27.80;97.00
7331;DHT22;3706;49.198;7.064;2023-08-12T13:48:09;27.40;98.10
7331;DHT22;3706;49.198;7.064;2023-08-12T13:50:37;27.10;98.80
7331;DHT22;3706;49.198;7.064;2023-08-12T13:53:04;26.80;99.90
7331;DHT22;3706;49.198;7.064;2023-08-12T13:55:31;26.80;99.90
7331;DHT22;3706;49.198;7.064;2023-08-12T13:57:58;26.90;99.90
7331;DHT22;3706;49.198;7.064;2023-08-12T14:00:25;27.10;99.90
7331;DHT22;3706;49.198;7.064;2023-08-12T14:02:52;27.20;99.90
7331;DHT22;3706;49.198;7.064;2023-08-12T14:05:19;27.30;99.90
7331;DHT22;3706;49.198;7.064;2023-08-12T14:07:47;27.40;99.90
7331;DHT22;3706;49.198;7.064;2023-08-12T14:10:14;27.60;99.90
7331;DHT22;3706;49.198;7.064;2023-08-12T14:12:41;27.60;99.90
7331;DHT22;3706;49.198;7.064;2023-08-12T14:15:08;27.50;99.90
7331;DHT22;3706;49.198;7.064;2023-08-12T14:17:35;27.20;99.90
7331;DHT22;3706;49.198;7.064;2023-08-12T14:20:03;27.00;99.90
7331;DHT22;3706;49.198;7.064;2023-08-12T14:22:33;26.90;99.90
7331;DHT22;3706;49.198;7.064;2023-08-12T14:25:01;27.00;99.90
7331;DHT22;3706;49.198;7.064;2023-08-12T14:27:29;27.10;99.90
7331;DHT22;3706;49.198;7.064;2023-08-12T14:29:56;27.10;99.80
7331;DHT22;3706;49.198;7.064;2023-08-12T14:32:23;27.10;99.80
7331;DHT22;3706;49.198;7.064;2023-08-12T14:34:50;27.00;99.90
7331;DHT22;3706;49.198;7.064;2023-08-12T14:37:16;26.80;99.90
7331;DHT22;3706;49.198;7.064;2023-08-12T14:39:43;26.50;99.90
7331;DHT22;3706;49.198;7.064;2023-08-12T14:42:12;26.50;99.90
7331;DHT22;3706;49.198;7.064;2023-08-12T14:44:39;26.50;99.90
7331;DHT22;3706;49.198;7.064;2023-08-12T14:47:06;26.60;99.90
7331;DHT22;3706;49.198;7.064;2023-08-12T14:49:33;26.70;99.90
7331;DHT22;3706;49.198;7.064;2023-08-12T14:52:00;26.70;99.90
7331;DHT22;3706;49.198;7.064;2023-08-12T14:54:27;26.70;99.90
7331;DHT22;3706;49.198;7.064;2023-08-12T14:56:54;26.60;99.90
7331;DHT22;3706;49.198;7.064;2023-08-12T14:59:22;26.60;99.90
7331;DHT22;3706;49.198;7.064;2023-08-12T15:01:51;26.40;99.90
7331;DHT22;3706;49.198;7.064;2023-08-12T15:04:18;26.50;99.90
7331;DHT22;3706;49.198;7.064;2023-08-12T15:06:45;26.70;99.90
7331;DHT22;3706;49.198;7.064;2023-08-12T15:09:12;26.90;99.90
7331;DHT22;3706;49.198;7.064;2023-08-12T15:11:38;26.70;99.90
7331;DHT22;3706;49.198;7.064;2023-08-12T15:14:05;26.50;99.90
7331;DHT22;3706;49.198;7.064;2023-08-12T15:16:33;26.30;99.90
7331;DHT22;3706;49.198;7.064;2023-08-12T15:19:01;26.30;99.90
7331;DHT22;3706;49.198;7.064;2023-08-12T15:21:29;26.60;99.90
7331;DHT22;3706;49.198;7.064;2023-08-12T15:23:55;26.60;99.90
7331;DHT22;3706;49.198;7.064;2023-08-12T15:26:23;26.60;99.90
7331;DHT22;3706;49.198;7.064;2023-08-12T15:28:50;26.40;99.90
7331;DHT22;3706;49.198;7.064;2023-08-12T15:31:17;26.30;99.90
7331;DHT22;3706;49.198;7.064;2023-08-12T15:33:45;26.40;99.90
7331;DHT22;3706;49.198;7.064;2023-08-12T15:36:13;26.50;99.90
7331;DHT22;3706;49.198;7.064;2023-08-12T15:38:40;26.60;99.90
7331;DHT22;3706;49.198;7.064;2023-08-12T15:41:12;26.70;99.90
7331;DHT22;3706;49.198;7.064;2023-08-12T15:43:40;26.70;99.90
7331;DHT22;3706;49.198;7.064;2023-08-12T15:46:06;26.70;99.90
7331;DHT22;3706;49.198;7.064;2023-08-12T15:48:34;26.60;99.90
7331;DHT22;3706;49.198;7.064;2023-08-12T15:51:02;26.50;99.90
7331;DHT22;3706;49.198;7.064;2023-08-12T15:53:29;26.20;99.90
7331;DHT22;3706;49.198;7.064;2023-08-12T15:55:56;26.00;99.90
7331;DHT22;3706;49.198;7.064;2023-08-12T15:58:23;25.90;99.90
7331;DHT22;3706;49.198;7.064;2023-08-12T16:00:50;25.90;99.90
7331;DHT22;3706;49.198;7.064;2023-08-12T16:03:18;26.00;99.90
7331;DHT22;3706;49.198;7.064;2023-08-12T16:05:46;26.10;99.90